<?xml version='1.0' encoding='UTF-8'?>
<gpx xmlns="http://www.topografix.com/GPX/1/1" creator="www.balnam.be" version="1.1" xmlns:xsi="http://www.w3.org/2001/XMLSchema-instance" xsi:schemaLocation="http://www.topografix.com/GPX/1/1 http://www.topografix.com/GPX/1/1/gpx.xsd">
<trk>
<name>ncnbr7</name>
<cmt>v</cmt>
<desc>Braibant Chemin n°7 Rue de Stée</desc>
<link href="https://chemins.be/braibant/chemin/7"/><trkseg>
<trkpt lat="50.313107" lon="5.052252"><time>2026-05-02T18:30:29Z</time></trkpt>
<trkpt lat="50.315287" lon="5.053462"><time>2026-05-02T18:40:29Z</time></trkpt>
<trkpt lat="50.316107" lon="5.054962"><time>2026-05-02T18:50:29Z</time></trkpt>
<trkpt lat="50.316767" lon="5.056582"><time>2026-05-02T19:00:29Z</time></trkpt>
<trkpt lat="50.317367" lon="5.057812"><time>2026-05-02T19:10:29Z</time></trkpt>
<trkpt lat="50.318167" lon="5.058962"><time>2026-05-02T19:20:29Z</time></trkpt>
<trkpt lat="50.321159" lon="5.061830"><time>2026-05-02T19:30:29Z</time></trkpt>
<trkpt lat="50.322988" lon="5.063292"><time>2026-05-02T19:40:29Z</time></trkpt>
<trkpt lat="50.323848" lon="5.064062"><time>2026-05-02T19:50:29Z</time></trkpt>
<trkpt lat="50.324954" lon="5.064341"><time>2026-05-02T20:00:29Z</time></trkpt>
<trkpt lat="50.325108" lon="5.064682"><time>2026-05-02T20:10:29Z</time></trkpt>
<trkpt lat="50.325175" lon="5.065444"><time>2026-05-02T20:20:29Z</time></trkpt>
<trkpt lat="50.325221" lon="5.066026"><time>2026-05-02T20:30:29Z</time></trkpt>
<trkpt lat="50.325026" lon="5.066584"><time>2026-05-02T20:40:29Z</time></trkpt>
<trkpt lat="50.325218" lon="5.067192"><time>2026-05-02T20:50:29Z</time></trkpt>
<trkpt lat="50.325508" lon="5.067462"><time>2026-05-02T21:00:29Z</time></trkpt>
<trkpt lat="50.325768" lon="5.068262"><time>2026-05-02T21:10:29Z</time></trkpt>
</trkseg></trk>
<trk>
<name>ncnbr7</name>
<cmt>r</cmt>
<desc>Braibant Chemin n°7 Rue de Stée</desc>
<link href="https://chemins.be/braibant/chemin/7"/><trkseg>
<trkpt lat="50.325768" lon="5.068262"><time>2026-05-02T21:10:29Z</time></trkpt>
<trkpt lat="50.325748" lon="5.068262"><time>2026-05-02T21:20:29Z</time></trkpt>
<trkpt lat="50.326288" lon="5.067892"><time>2026-05-02T21:30:29Z</time></trkpt>
<trkpt lat="50.326638" lon="5.067522"><time>2026-05-02T21:40:29Z</time></trkpt>
<trkpt lat="50.327288" lon="5.065302"><time>2026-05-02T21:50:29Z</time></trkpt>
<trkpt lat="50.327538" lon="5.064922"><time>2026-05-02T22:00:29Z</time></trkpt>
<trkpt lat="50.327748" lon="5.065182"><time>2026-05-02T22:10:29Z</time></trkpt>
<trkpt lat="50.328178" lon="5.065902"><time>2026-05-02T22:20:29Z</time></trkpt>
<trkpt lat="50.328658" lon="5.065992"><time>2026-05-02T22:30:29Z</time></trkpt>
</trkseg>
</trk>
</gpx>